TimeMST,TemperatureF,Dew PointF,Humidity,Sea Level PressureIn,VisibilityMPH,Wind Direction,Wind SpeedMPH,Gust SpeedMPH,PrecipitationIn,Events,Conditions,WindDirDegrees,DateUTC
12:53 AM,35.1,17.1,48,29.77,10.0,Calm,Calm,-,N/A,,Scattered Clouds,0,2012-12-07 07:53:00
1:53 AM,33.1,16.0,50,29.78,10.0,Calm,Calm,-,N/A,,Clear,0,2012-12-07 08:53:00
2:53 AM,28.0,15.1,58,29.81,10.0,South,3.5,-,N/A,,Clear,180,2012-12-07 09:53:00
3:53 AM,27.0,16.0,63,29.84,10.0,Variable,3.5,-,N/A,,Clear,0,2012-12-07 10:53:00
4:53 AM,26.1,17.1,69,29.88,10.0,Variable,4.6,-,N/A,,Clear,0,2012-12-07 11:53:00
5:53 AM,23.0,15.1,72,29.91,10.0,Calm,Calm,-,N/A,,Clear,0,2012-12-07 12:53:00
6:53 AM,21.9,15.1,75,29.94,10.0,West,5.8,-,N/A,,Clear,270,2012-12-07 13:53:00
7:53 AM,21.9,15.1,75,29.96,10.0,WSW,3.5,-,N/A,,Clear,250,2012-12-07 14:53:00
8:53 AM,25.0,17.1,72,29.94,10.0,Calm,Calm,-,N/A,,Clear,0,2012-12-07 15:53:00
9:53 AM,28.0,19.9,72,29.96,10.0,NW,9.2,-,N/A,,Clear,320,2012-12-07 16:53:00
10:53 AM,30.9,19.9,64,29.96,10.0,Calm,Calm,-,N/A,,Clear,0,2012-12-07 17:53:00
11:53 AM,34.0,19.0,54,29.94,10.0,Calm,Calm,-,N/A,,Clear,0,2012-12-07 18:53:00
12:53 PM,35.1,18.0,50,29.91,10.0,Variable,3.5,-,N/A,,Clear,0,2012-12-07 19:53:00
1:53 PM,37.0,17.1,44,29.89,10.0,Variable,4.6,-,N/A,,Clear,0,2012-12-07 20:53:00
2:53 PM,37.9,15.1,39,29.89,10.0,ESE,6.9,-,N/A,,Clear,120,2012-12-07 21:53:00
3:53 PM,36.0,12.9,39,29.91,10.0,South,4.6,-,N/A,,Clear,180,2012-12-07 22:53:00
4:53 PM,33.1,5.0,31,29.92,10.0,Calm,Calm,-,N/A,,Clear,0,2012-12-07 23:53:00
5:53 PM,30.9,5.0,33,29.93,10.0,SW,6.9,-,N/A,,Clear,220,2012-12-08 00:53:00
6:53 PM,27.0,10.9,51,29.94,10.0,West,4.6,-,N/A,,Clear,270,2012-12-08 01:53:00
7:53 PM,30.0,7.0,38,29.91,10.0,Calm,Calm,-,N/A,,Clear,0,2012-12-08 02:53:00
8:53 PM,28.0,7.0,41,29.86,10.0,ESE,3.5,-,N/A,,Clear,110,2012-12-08 03:53:00
9:53 PM,32.0,6.1,34,29.81,10.0,Variable,3.5,-,N/A,,Clear,0,2012-12-08 04:53:00
10:53 PM,28.9,7.0,40,29.78,10.0,NNW,8.1,-,N/A,,Clear,340,2012-12-08 05:53:00
11:53 PM,32.0,7.0,35,29.74,10.0,West,6.9,-,N/A,,Clear,260,2012-12-08 06:53:00